Time;durP1;ratioP1;P1;durP2;ratioP2;P2;SDS_P1;SDS_P2;PMS_P1;PMS_P2;Temp;Humidity;BMP_temperature;BMP_pressure;BME280_temperature;BME280_humidity;BME280_pressure;Samples;Min_cycle;Max_cycle;Signal;HPM_P1;HPM_P2
2022/01/15 00:00:46;;;;;;;8.70;3.60;;;13.70;99.90;;;;;;10168793;29;20631;-80
2022/01/15 00:05:49;;;;;;;10.47;4.60;;;13.80;99.90;;;;;;10152096;29;20268;-80
2022/01/15 00:10:52;;;;;;;7.60;4.40;;;13.90;99.90;;;;;;10134971;29;20299;-80
2022/01/15 00:16:05;;;;;;;7.20;4.67;;;13.90;99.90;;;;;;10143980;29;20663;-80
2022/01/15 00:21:09;;;;;;;10.63;4.67;;;14.00;99.90;;;;;;10156256;29;20252;-80
2022/01/15 00:26:12;;;;;;;11.23;4.90;;;13.70;99.90;;;;;;10165894;29;20246;-80
2022/01/15 00:31:14;;;;;;;12.10;4.43;;;13.70;99.90;;;;;;10150765;29;20647;-81
2022/01/15 00:36:17;;;;;;;12.10;4.57;;;13.70;99.90;;;;;;10150931;29;20246;-80
2022/01/15 00:41:19;;;;;;;8.27;4.77;;;13.70;99.90;;;;;;10168798;29;20304;-80
2022/01/15 00:46:22;;;;;;;7.73;4.37;;;13.70;99.90;;;;;;10174287;29;20210;-81
2022/01/15 00:51:25;;;;;;;11.90;4.77;;;13.70;99.90;;;;;;10175643;29;20246;-81
2022/01/15 00:56:27;;;;;;;10.87;4.37;;;13.70;99.90;;;;;;10175898;29;20298;-81
2022/01/15 01:01:30;;;;;;;14.90;4.20;;;13.70;99.90;;;;;;10175605;29;20259;-81
2022/01/15 01:06:32;;;;;;;9.73;4.57;;;13.50;99.90;;;;;;10175055;29;20237;-81
2022/01/15 01:11:46;;;;;;;10.60;4.37;;;13.60;99.90;;;;;;10174663;29;20289;-81
2022/01/15 01:27:43;;;;;;;8.50;4.43;;;13.50;99.90;;;;;;10174439;29;20318;-81
2022/01/15 01:32:53;;;;;;;8.77;4.27;;;13.60;99.90;;;;;;10157532;29;20647;-81
2022/01/15 01:38:00;;;;;;;9.67;4.30;;;13.50;99.90;;;;;;10157877;29;20624;-81
2022/01/15 01:48:28;;;;;;;7.90;3.73;;;13.50;99.90;;;;;;10129774;29;20236;-81
2022/01/15 01:53:31;;;;;;;9.93;4.50;;;13.50;99.90;;;;;;10129264;29;20249;-82
2022/01/15 01:58:34;;;;;;;8.17;3.83;;;13.50;99.90;;;;;;10129205;29;20246;-81
2022/01/15 02:03:37;;;;;;;9.47;3.67;;;13.40;99.90;;;;;;10113032;29;20299;-82
2022/01/15 02:08:39;;;;;;;10.43;4.40;;;13.40;99.90;;;;;;10129056;29;20255;-82
2022/01/15 02:13:45;;;;;;;9.37;4.17;;;13.40;99.90;;;;;;10155061;29;20290;-82
2022/01/15 02:18:54;;;;;;;9.17;4.50;;;13.40;99.90;;;;;;10152288;29;20708;-82
2022/01/15 02:23:57;;;;;;;12.07;5.03;;;13.50;99.70;;;;;;10148212;29;20730;-82
2022/01/15 02:29:01;;;;;;;9.60;4.63;;;13.40;99.90;;;;;;10179301;29;20259;-82
2022/01/15 02:34:05;;;;;;;12.70;4.87;;;13.40;99.90;;;;;;10155954;29;20239;-82
2022/01/15 02:39:08;;;;;;;10.07;5.60;;;13.40;99.90;;;;;;10171722;29;20250;-82
2022/01/15 02:44:16;;;;;;;10.73;4.77;;;13.50;99.90;;;;;;10170128;29;20648;-81
2022/01/15 02:49:19;;;;;;;11.80;4.93;;;13.40;99.90;;;;;;10172836;29;20638;-82
2022/01/15 02:54:21;;;;;;;17.07;6.27;;;13.40;99.90;;;;;;10171624;29;20242;-81
2022/01/15 02:59:26;;;;;;;8.17;4.37;;;13.30;99.90;;;;;;10171579;29;20237;-81
2022/01/15 03:04:28;;;;;;;10.33;4.07;;;13.40;99.90;;;;;;10200918;29;20278;-81
2022/01/15 03:09:31;;;;;;;9.93;4.97;;;13.30;99.90;;;;;;10210042;29;20289;-81
2022/01/15 03:14:34;;;;;;;9.10;5.03;;;13.40;99.90;;;;;;10178567;29;20229;-81
2022/01/15 03:19:37;;;;;;;10.53;4.63;;;13.40;99.90;;;;;;10170324;29;20242;-81
2022/01/15 03:24:39;;;;;;;11.67;4.07;;;13.20;99.90;;;;;;10201367;29;20283;-81
2022/01/15 03:29:43;;;;;;;16.70;4.77;;;13.40;99.90;;;;;;10192060;29;20231;-81
2022/01/15 03:34:47;;;;;;;12.07;4.60;;;13.30;99.90;;;;;;10154403;29;20774;-81
2022/01/15 03:39:49;;;;;;;12.13;5.03;;;13.30;99.90;;;;;;10152740;29;20261;-81
2022/01/15 03:44:52;;;;;;;11.17;4.67;;;13.10;99.90;;;;;;10116885;29;20263;-81
2022/01/15 03:49:54;;;;;;;13.40;4.10;;;13.20;99.90;;;;;;10130207;29;20680;-81
2022/01/15 03:54:57;;;;;;;9.03;4.17;;;13.20;99.90;;;;;;10162304;29;20270;-81
2022/01/15 04:00:00;;;;;;;10.97;3.87;;;13.20;99.90;;;;;;10151467;29;20260;-81
2022/01/15 04:05:03;;;;;;;10.00;4.33;;;13.20;99.90;;;;;;10168924;29;20314;-81
2022/01/15 04:10:07;;;;;;;9.07;3.93;;;13.10;99.90;;;;;;10151578;29;20221;-81
2022/01/15 04:15:13;;;;;;;8.20;3.97;;;13.20;99.90;;;;;;10152115;29;20293;-81
2022/01/15 04:20:19;;;;;;;9.30;3.57;;;13.20;99.80;;;;;;10173771;29;20269;-81
2022/01/15 04:25:22;;;;;;;9.90;4.97;;;13.00;99.70;;;;;;10168710;29;20270;-81
2022/01/15 04:30:25;;;;;;;9.43;3.80;;;13.00;99.90;;;;;;10169354;29;20266;-81
2022/01/15 04:35:28;;;;;;;8.40;4.33;;;12.80;99.90;;;;;;10151842;29;20269;-80
2022/01/15 04:40:30;;;;;;;10.00;4.33;;;12.60;99.90;;;;;;10174295;29;20254;-81
2022/01/15 04:45:33;;;;;;;9.83;3.83;;;12.80;99.90;;;;;;10168494;29;20242;-81
2022/01/15 04:50:36;;;;;;;8.47;3.80;;;12.70;99.90;;;;;;10168925;29;20242;-81
2022/01/15 04:55:38;;;;;;;7.33;3.97;;;12.70;99.90;;;;;;10168272;29;20661;-81
2022/01/15 05:00:41;;;;;;;9.60;3.97;;;12.60;99.90;;;;;;10168027;29;20257;-81
2022/01/15 05:05:43;;;;;;;10.97;4.33;;;12.70;99.90;;;;;;10166650;29;20215;-81
2022/01/15 05:10:47;;;;;;;9.13;4.20;;;12.50;99.90;;;;;;10167850;29;20303;-80
2022/01/15 05:15:50;;;;;;;11.23;4.50;;;12.70;99.90;;;;;;10167597;29;20679;-81
2022/01/15 05:20:52;;;;;;;12.27;4.53;;;12.60;99.90;;;;;;10167690;29;20249;-81
2022/01/15 05:25:55;;;;;;;9.57;4.57;;;12.70;99.90;;;;;;10151055;29;20237;-81
2022/01/15 05:30:57;;;;;;;10.10;4.60;;;12.40;99.90;;;;;;10155969;29;20269;-81
2022/01/15 05:36:00;;;;;;;8.83;4.00;;;12.60;99.90;;;;;;10172958;29;20237;-81
2022/01/15 05:41:03;;;;;;;17.60;8.77;;;12.70;99.90;;;;;;10174129;29;20261;-81
2022/01/15 05:46:06;;;;;;;10.00;4.40;;;12.40;99.90;;;;;;10173743;29;20663;-81
2022/01/15 05:51:08;;;;;;;9.03;4.37;;;12.50;99.90;;;;;;10156447;29;20645;-81
2022/01/15 05:56:11;;;;;;;10.57;4.27;;;12.50;99.90;;;;;;10156239;29;20311;-81
2022/01/15 06:01:13;;;;;;;10.07;4.10;;;12.40;99.90;;;;;;10173259;29;20806;-81
2022/01/15 06:06:16;;;;;;;13.20;5.93;;;12.40;99.90;;;;;;10173626;29;20233;-81
2022/01/15 06:11:18;;;;;;;7.63;3.93;;;12.30;99.90;;;;;;10160302;29;20232;-81
2022/01/15 06:16:22;;;;;;;6.80;4.30;;;12.40;99.90;;;;;;10155140;29;20295;-81
2022/01/15 06:21:24;;;;;;;13.17;4.23;;;12.30;99.90;;;;;;10149219;29;20261;-80
2022/01/15 06:26:27;;;;;;;7.53;4.10;;;12.20;99.90;;;;;;10136141;29;20233;-80
2022/01/15 06:31:31;;;;;;;12.23;4.63;;;12.30;99.90;;;;;;10163382;29;20669;-80
2022/01/15 06:36:33;;;;;;;8.73;4.13;;;12.20;99.90;;;;;;10140259;29;20269;-80
2022/01/15 06:41:35;;;;;;;17.37;4.77;;;12.30;99.90;;;;;;10147999;29;20726;-80
2022/01/15 06:46:38;;;;;;;8.77;4.70;;;12.40;99.90;;;;;;10170845;29;20233;-81
2022/01/15 06:51:40;;;;;;;15.17;5.03;;;12.30;99.90;;;;;;10149450;29;20274;-81
2022/01/15 06:56:43;;;;;;;5.70;3.50;;;12.30;99.90;;;;;;10145225;29;20328;-80
2022/01/15 07:01:45;;;;;;;13.67;5.07;;;12.30;99.90;;;;;;10134524;29;20264;-80
2022/01/15 07:06:48;;;;;;;7.17;3.80;;;12.10;99.90;;;;;;10148474;29;20232;-80
2022/01/15 07:11:50;;;;;;;10.87;4.27;;;11.60;99.90;;;;;;10143344;29;20240;-80
2022/01/15 07:16:53;;;;;;;7.93;4.07;;;12.00;99.90;;;;;;10139891;29;20716;-80
2022/01/15 07:21:55;;;;;;;8.57;3.30;;;12.20;99.90;;;;;;10132089;29;20865;-81
2022/01/15 07:26:58;;;;;;;7.80;3.80;;;12.40;99.90;;;;;;10151750;29;20259;-80
2022/01/15 07:32:01;;;;;;;10.83;4.77;;;12.60;99.90;;;;;;10168870;29;20209;-80
2022/01/15 07:37:04;;;;;;;7.33;3.90;;;12.40;99.90;;;;;;10171822;29;20305;-80
2022/01/15 07:42:10;;;;;;;7.00;3.60;;;12.40;99.90;;;;;;10170815;29;20571;-80
2022/01/15 07:47:12;;;;;;;5.63;3.73;;;12.50;99.90;;;;;;10171510;29;20232;-80
2022/01/15 07:52:15;;;;;;;7.70;3.83;;;12.70;99.90;;;;;;10171388;29;20248;-80
2022/01/15 07:57:17;;;;;;;13.67;4.33;;;12.80;99.90;;;;;;10158867;29;20612;-80
2022/01/15 08:02:20;;;;;;;8.23;4.30;;;12.90;99.40;;;;;;10214804;29;20248;-79
2022/01/15 08:07:22;;;;;;;8.53;3.83;;;12.70;99.30;;;;;;10220605;29;20216;-80
2022/01/15 08:12:25;;;;;;;15.83;6.07;;;12.50;99.40;;;;;;10203465;29;20231;-79
2022/01/15 08:17:29;;;;;;;13.30;5.03;;;12.40;98.10;;;;;;10193464;29;20301;-80
2022/01/15 08:22:32;;;;;;;7.30;4.73;;;12.50;99.00;;;;;;10201806;29;20253;-79
2022/01/15 08:27:34;;;;;;;10.20;4.43;;;12.50;98.90;;;;;;10202644;29;20287;-81
2022/01/15 08:32:37;;;;;;;10.27;5.03;;;12.50;99.40;;;;;;10218537;29;20241;-80
2022/01/15 08:37:40;;;;;;;10.87;4.80;;;12.50;99.20;;;;;;10218619;29;20227;-80
2022/01/15 08:42:42;;;;;;;14.57;6.47;;;12.30;98.90;;;;;;10212904;29;20287;-78
2022/01/15 08:47:45;;;;;;;9.30;4.47;;;12.40;96.40;;;;;;10180466;29;20209;-80
2022/01/15 08:52:48;;;;;;;23.63;12.17;;;12.30;99.30;;;;;;10181859;29;20216;-80
2022/01/15 08:57:50;;;;;;;11.83;5.50;;;8.20;83.60;;;;;;10183135;29;20260;-80
2022/01/15 09:02:53;;;;;;;20.23;8.37;;;10.10;99.90;;;;;;10185521;29;20224;-81
2022/01/15 09:07:56;;;;;;;11.80;5.47;;;11.60;94.90;;;;;;10168113;29;20264;-81
2022/01/15 09:12:59;;;;;;;11.10;5.00;;;11.50;99.90;;;;;;10163025;29;20601;-80
2022/01/15 09:18:04;;;;;;;8.37;5.33;;;12.60;99.90;;;;;;10183446;29;20217;-80
2022/01/15 09:23:07;;;;;;;14.50;5.53;;;12.40;97.60;;;;;;10188425;29;20625;-80
2022/01/15 09:33:30;;;;;;;11.80;7.30;;;11.80;98.60;;;;;;10177477;29;20208;-81
2022/01/15 09:38:33;;;;;;;22.00;11.90;;;12.70;95.80;;;;;;10177287;29;20212;-81
2022/01/15 09:43:39;;;;;;;10.67;5.60;;;11.50;78.50;;;;;;10177452;29;20374;-81
2022/01/15 09:48:44;;;;;;;10.13;5.40;;;12.10;99.90;;;;;;10159630;29;20694;-81
2022/01/15 09:53:47;;;;;;;11.07;6.07;;;12.10;99.90;;;;;;10177780;29;20752;-81
2022/01/15 09:58:50;;;;;;;15.53;5.70;;;12.40;99.20;;;;;;10177018;29;20212;-81
2022/01/15 10:03:52;;;;;;;9.17;5.23;;;12.10;99.70;;;;;;10159494;29;20237;-81
2022/01/15 10:09:07;;;;;;;8.90;5.87;;;12.40;98.80;;;;;;10176750;29;20217;-81
2022/01/15 10:14:23;;;;;;;11.13;5.60;;;13.00;96.30;;;;;;10157637;29;20220;-81
2022/01/15 10:19:36;;;;;;;11.13;6.70;;;12.80;93.10;;;;;;10172967;29;20239;-81
2022/01/15 10:24:40;;;;;;;10.83;5.60;;;12.20;98.40;;;;;;10170072;29;20263;-81
2022/01/15 10:29:50;;;;;;;19.30;10.57;;;12.70;97.50;;;;;;10155521;29;20236;-92
2022/01/15 10:34:52;;;;;;;18.50;11.27;;;12.10;87.20;;;;;;10157191;29;20252;-92
2022/01/15 10:40:06;;;;;;;20.27;11.13;;;12.20;84.70;;;;;;10174184;29;20219;-93
2022/01/15 10:45:13;;;;;;;18.90;10.30;;;12.60;81.60;;;;;;10137140;29;20232;-93
2022/01/15 10:50:23;;;;;;;18.10;11.57;;;12.70;81.10;;;;;;10134264;29;20248;-92
2022/01/15 10:55:27;;;;;;;19.33;10.50;;;11.70;82.00;;;;;;10165120;29;20215;-91
2022/01/15 11:00:42;;;;;;;21.63;11.23;;;12.70;82.30;;;;;;10141326;29;20211;-92
2022/01/15 11:05:52;;;;;;;18.23;9.33;;;11.60;84.30;;;;;;10156537;29;20807;-92
2022/01/15 11:10:54;;;;;;;20.20;9.90;;;12.50;83.20;;;;;;10162862;29;20262;-89
2022/01/15 11:16:00;;;;;;;18.97;10.43;;;12.50;84.30;;;;;;10155389;29;20247;-91
2022/01/15 11:21:05;;;;;;;15.43;9.07;;;12.40;83.90;;;;;;10170547;29;20310;-91
2022/01/15 11:26:10;;;;;;;15.67;9.20;;;12.20;86.20;;;;;;10161834;29;20266;-91
2022/01/15 11:31:20;;;;;;;16.80;10.50;;;12.60;85.40;;;;;;10156086;29;20345;-92
2022/01/15 11:36:39;;;;;;;19.43;9.30;;;12.60;76.40;;;;;;10152825;29;20248;-92
2022/01/15 11:41:44;;;;;;;19.67;10.17;;;12.80;85.00;;;;;;10170794;29;20263;-92
2022/01/15 11:46:53;;;;;;;16.30;9.10;;;12.80;83.30;;;;;;10171697;29;20207;-92
2022/01/15 11:52:06;;;;;;;15.80;9.27;;;12.70;84.80;;;;;;10172083;29;20236;-93
2022/01/15 11:57:21;;;;;;;19.07;10.00;;;12.80;85.50;;;;;;10170465;29;20402;-81
2022/01/15 12:02:35;;;;;;;18.00;8.63;;;11.50;72.70;;;;;;10167837;29;20317;-80
2022/01/15 12:07:38;;;;;;;15.27;7.53;;;11.70;77.30;;;;;;10160849;29;20243;-81
2022/01/15 12:12:47;;;;;;;14.40;7.67;;;12.00;78.50;;;;;;10149090;29;20247;-81
2022/01/15 12:18:00;;;;;;;11.87;6.77;;;12.40;80.20;;;;;;10167083;29;20240;-81
2022/01/15 12:23:03;;;;;;;13.90;7.67;;;12.80;78.50;;;;;;10166262;29;20306;-82
2022/01/15 12:28:09;;;;;;;12.50;7.17;;;12.80;81.20;;;;;;10167136;29;20256;-81
2022/01/15 12:33:14;;;;;;;10.53;6.40;;;13.30;84.00;;;;;;10165699;29;20264;-81
2022/01/15 12:38:33;;;;;;;15.03;7.00;;;13.80;83.90;;;;;;10161848;29;20255;-81
2022/01/15 12:43:37;;;;;;;9.33;5.70;;;14.00;84.80;;;;;;10175479;29;20255;-81
2022/01/15 12:48:45;;;;;;;9.77;6.27;;;13.90;86.60;;;;;;10174703;29;20306;-81
2022/01/15 12:53:53;;;;;;;11.47;7.50;;;14.00;87.50;;;;;;10158132;29;20238;-81
2022/01/15 12:58:57;;;;;;;13.73;7.00;;;14.00;79.50;;;;;;10175385;29;20264;-82
2022/01/15 13:04:10;;;;;;;9.63;5.93;;;14.10;89.50;;;;;;10161548;29;20265;-81
2022/01/15 13:09:12;;;;;;;12.17;6.40;;;14.40;89.40;;;;;;10151265;29;20304;-81
2022/01/15 13:14:15;;;;;;;9.87;6.47;;;14.40;89.70;;;;;;10174462;29;20319;-81
2022/01/15 13:19:17;;;;;;;10.37;6.67;;;14.40;90.10;;;;;;10174018;29;20254;-82
2022/01/15 13:24:20;;;;;;;13.60;6.70;;;14.30;90.60;;;;;;10172862;29;20264;-81
2022/01/15 13:29:42;;;;;;;14.07;7.27;;;14.40;90.90;;;;;;10171402;29;20316;-81
2022/01/15 13:34:48;;;;;;;10.80;6.53;;;14.20;90.40;;;;;;10151689;29;20256;-81
2022/01/15 13:39:51;;;;;;;12.23;6.87;;;14.40;91.30;;;;;;10170988;29;20322;-82
2022/01/15 13:44:53;;;;;;;12.90;6.83;;;14.30;91.30;;;;;;10172759;29;20731;-82
2022/01/15 13:55:28;;;;;;;11.73;7.03;;;14.30;91.80;;;;;;10173284;29;20293;-82
2022/01/15 14:00:31;;;;;;;10.27;7.10;;;14.10;92.30;;;;;;10171438;29;20614;-82
2022/01/15 14:05:35;;;;;;;8.93;6.40;;;14.10;92.20;;;;;;10173319;29;20287;-81
2022/01/15 14:10:40;;;;;;;12.13;7.27;;;14.20;92.70;;;;;;10155529;29;20264;-81
2022/01/15 14:15:46;;;;;;;8.27;6.40;;;14.00;92.60;;;;;;10171733;29;20244;-81
2022/01/15 14:25:56;;;;;;;13.00;7.60;;;14.20;93.50;;;;;;10172791;29;20774;-81
2022/01/15 14:30:59;;;;;;;10.13;6.63;;;14.20;93.40;;;;;;10171584;29;20229;-81
2022/01/15 14:36:03;;;;;;;13.03;6.90;;;14.20;93.50;;;;;;10171031;29;20275;-81
2022/01/15 14:41:05;;;;;;;10.77;6.40;;;14.20;93.40;;;;;;10134884;29;20620;-81
2022/01/15 14:46:08;;;;;;;13.73;7.40;;;14.20;93.60;;;;;;10149978;29;20313;-81
2022/01/15 14:51:13;;;;;;;9.77;6.17;;;14.10;92.00;;;;;;10147818;29;20807;-81
2022/01/15 14:56:16;;;;;;;10.80;6.60;;;14.10;93.80;;;;;;10138814;29;20242;-81
2022/01/15 15:01:19;;;;;;;10.10;6.83;;;14.10;93.80;;;;;;10130949;29;20308;-81
2022/01/15 15:06:21;;;;;;;11.33;7.87;;;14.20;93.60;;;;;;10147229;29;20338;-81
2022/01/15 15:11:27;;;;;;;11.17;7.23;;;14.10;93.70;;;;;;10148680;29;20262;-81
2022/01/15 15:16:33;;;;;;;8.30;6.40;;;14.10;93.60;;;;;;10150079;29;20290;-81
2022/01/15 15:21:36;;;;;;;12.33;6.47;;;14.10;93.50;;;;;;10140115;29;20239;-81
2022/01/15 15:26:39;;;;;;;8.47;6.43;;;14.10;93.50;;;;;;10143632;29;20268;-81
2022/01/15 15:31:42;;;;;;;9.70;6.33;;;14.00;93.50;;;;;;10129234;29;20263;-82
2022/01/15 15:36:45;;;;;;;12.20;7.70;;;14.00;93.50;;;;;;10146186;29;20231;-81
2022/01/15 15:41:49;;;;;;;10.23;6.50;;;13.80;93.90;;;;;;10146102;29;20695;-81
2022/01/15 15:46:51;;;;;;;10.60;7.77;;;13.80;94.00;;;;;;10130785;29;20327;-81
2022/01/15 15:51:54;;;;;;;11.63;7.10;;;13.90;93.80;;;;;;10163554;29;20293;-81
2022/01/15 15:56:56;;;;;;;12.23;6.40;;;13.70;94.00;;;;;;10167634;29;20261;-80
2022/01/15 16:01:59;;;;;;;9.50;6.60;;;13.80;93.90;;;;;;10151335;29;20683;-81
2022/01/15 16:07:02;;;;;;;10.73;7.50;;;13.70;94.00;;;;;;10166477;29;20249;-81
2022/01/15 16:12:05;;;;;;;11.40;6.87;;;13.80;93.80;;;;;;10149765;29;20695;-81
2022/01/15 16:17:08;;;;;;;12.97;7.10;;;13.90;93.60;;;;;;9456214;29;10000719;-81
2022/01/15 16:22:11;;;;;;;11.27;6.50;;;13.80;93.60;;;;;;10146909;29;20586;-81
2022/01/15 16:27:14;;;;;;;17.23;8.27;;;13.90;93.60;;;;;;10145590;29;20324;-81
2022/01/15 16:32:18;;;;;;;11.53;7.30;;;13.80;93.50;;;;;;10145496;29;20235;-81
2022/01/15 16:37:21;;;;;;;11.40;7.83;;;13.70;93.70;;;;;;10161887;29;20240;-81
2022/01/15 16:42:24;;;;;;;11.63;7.10;;;13.60;93.80;;;;;;10145869;29;20703;-80
2022/01/15 16:47:26;;;;;;;10.10;7.20;;;13.50;93.90;;;;;;10163174;29;20263;-81
2022/01/15 16:52:29;;;;;;;11.17;7.50;;;13.60;93.80;;;;;;10163871;29;20271;-81
2022/01/15 16:57:36;;;;;;;11.53;7.57;;;13.70;93.70;;;;;;10146464;29;20248;-81
2022/01/15 17:02:38;;;;;;;16.20;8.43;;;13.60;93.60;;;;;;10161766;29;20626;-81
2022/01/15 17:07:41;;;;;;;11.40;7.80;;;13.50;93.70;;;;;;10139966;29;20577;-81
2022/01/15 17:12:44;;;;;;;10.73;6.93;;;13.60;93.80;;;;;;9812515;29;9999602;-81
2022/01/15 17:17:47;;;;;;;13.57;8.13;;;13.50;93.90;;;;;;10181712;29;20312;-81
2022/01/15 17:22:50;;;;;;;12.17;8.17;;;13.30;94.40;;;;;;10174919;29;20281;-81
2022/01/15 17:27:52;;;;;;;13.53;7.60;;;13.40;94.50;;;;;;10183917;29;20721;-81
2022/01/15 17:32:55;;;;;;;12.20;8.00;;;13.40;94.30;;;;;;10161652;29;20284;-81
2022/01/15 17:37:58;;;;;;;13.73;8.37;;;13.50;94.30;;;;;;10191083;29;20268;-81
2022/01/15 17:43:00;;;;;;;13.40;7.33;;;13.40;92.70;;;;;;10192533;29;20263;-81
2022/01/15 17:48:03;;;;;;;10.63;7.30;;;13.40;94.10;;;;;;10172753;29;20259;-80
2022/01/15 17:53:07;;;;;;;11.07;9.00;;;13.40;94.00;;;;;;10152783;29;20241;-81
2022/01/15 17:58:09;;;;;;;11.70;7.93;;;13.50;93.70;;;;;;10169028;29;20246;-81
2022/01/15 18:03:12;;;;;;;14.43;7.50;;;13.50;93.50;;;;;;10136553;29;20246;-81
2022/01/15 18:08:14;;;;;;;14.53;8.57;;;13.30;93.10;;;;;;10202876;29;20317;-81
2022/01/15 18:13:17;;;;;;;12.20;7.63;;;13.40;93.60;;;;;;10190125;29;20668;-81
2022/01/15 18:18:20;;;;;;;11.53;7.03;;;13.40;93.50;;;;;;10176598;29;20558;-80
2022/01/15 18:23:23;;;;;;;14.07;8.60;;;13.40;93.50;;;;;;10151436;29;20309;-81
2022/01/15 18:28:25;;;;;;;10.27;7.23;;;13.20;93.70;;;;;;10168056;29;20622;-81
2022/01/15 18:33:30;;;;;;;9.03;7.00;;;13.20;94.30;;;;;;10168036;29;20329;-81
2022/01/15 18:38:32;;;;;;;15.13;7.67;;;13.20;94.20;;;;;;10166110;29;20317;-81
2022/01/15 18:43:35;;;;;;;9.50;7.37;;;13.20;94.10;;;;;;10167295;29;20266;-81
2022/01/15 18:48:37;;;;;;;11.40;7.53;;;13.10;94.40;;;;;;10167143;29;20301;-81
2022/01/15 18:53:40;;;;;;;17.10;9.70;;;13.10;94.30;;;;;;10166511;29;20755;-81
2022/01/15 18:58:42;;;;;;;12.07;8.63;;;13.10;93.40;;;;;;10166636;29;20313;-81
2022/01/15 19:03:46;;;;;;;12.03;7.83;;;13.40;94.00;;;;;;10148178;29;20814;-81
2022/01/15 19:08:48;;;;;;;11.30;7.37;;;13.20;94.10;;;;;;10164484;29;20251;-81
2022/01/15 19:13:50;;;;;;;11.97;7.97;;;13.10;94.40;;;;;;10166124;29;20301;-81
2022/01/15 19:18:53;;;;;;;12.37;7.80;;;12.90;94.90;;;;;;10164693;29;20247;-81
2022/01/15 19:23:55;;;;;;;11.07;7.33;;;13.10;94.90;;;;;;10147657;29;20318;-81
2022/01/15 19:28:58;;;;;;;18.60;10.87;;;12.80;95.00;;;;;;10163763;29;20329;-81
2022/01/15 19:34:00;;;;;;;10.13;6.87;;;13.10;92.90;;;;;;10133791;29;20330;-81
2022/01/15 19:39:05;;;;;;;13.03;9.47;;;13.00;94.90;;;;;;10144032;29;20282;-81
2022/01/15 19:44:07;;;;;;;13.43;8.70;;;13.30;94.20;;;;;;10174667;29;20317;-81
2022/01/15 19:49:10;;;;;;;12.37;8.27;;;13.30;94.20;;;;;;10202068;29;20290;-81
2022/01/15 19:54:13;;;;;;;9.47;7.20;;;13.20;94.30;;;;;;10138900;29;20250;-81
2022/01/15 19:59:15;;;;;;;12.67;9.43;;;13.20;94.40;;;;;;10137449;29;20286;-81
2022/01/15 20:04:18;;;;;;;9.60;7.93;;;13.10;94.60;;;;;;10157845;29;20278;-81
2022/01/15 20:09:23;;;;;;;13.97;8.17;;;13.10;94.60;;;;;;10207665;29;20248;-81
2022/01/15 20:14:26;;;;;;;11.97;8.77;;;13.20;94.20;;;;;;10206683;29;20251;-81
2022/01/15 20:19:28;;;;;;;12.80;8.17;;;13.20;94.10;;;;;;10171107;29;20254;-81
2022/01/15 20:24:31;;;;;;;13.17;7.40;;;13.10;94.20;;;;;;10172532;29;20733;-81
2022/01/15 20:29:33;;;;;;;12.40;8.53;;;13.00;94.50;;;;;;10164793;29;20352;-81
2022/01/15 20:34:36;;;;;;;12.30;7.80;;;13.00;94.50;;;;;;10146248;29;20237;-81
2022/01/15 20:39:40;;;;;;;13.27;7.57;;;12.70;94.70;;;;;;10146729;29;20245;-81
2022/01/15 20:44:48;;;;;;;11.93;7.67;;;13.00;94.60;;;;;;10135167;29;20310;-81
2022/01/15 20:49:51;;;;;;;12.40;7.83;;;13.10;94.40;;;;;;10160349;29;20239;-81
2022/01/15 20:54:54;;;;;;;9.40;6.97;;;13.00;94.40;;;;;;10167559;29;20302;-81
2022/01/15 20:59:56;;;;;;;15.53;9.13;;;13.00;94.30;;;;;;10170380;29;20248;-81
2022/01/15 21:04:59;;;;;;;10.70;7.47;;;13.10;92.50;;;;;;10192243;29;20711;-81
2022/01/15 21:10:03;;;;;;;10.77;7.53;;;13.10;94.00;;;;;;10208251;29;20237;-81
2022/01/15 21:15:07;;;;;;;13.90;7.57;;;13.10;93.80;;;;;;10205803;29;20667;-81
2022/01/15 21:20:10;;;;;;;10.30;7.57;;;12.80;94.50;;;;;;10178582;29;20234;-81
2022/01/15 21:25:12;;;;;;;11.83;7.63;;;12.70;94.70;;;;;;10203978;29;20654;-81
2022/01/15 21:30:35;;;;;;;9.23;6.90;;;12.40;93.60;;;;;;10162834;29;20289;-81
2022/01/15 21:35:41;;;;;;;11.20;7.43;;;12.60;95.00;;;;;;10156725;29;20227;-81
2022/01/15 21:40:45;;;;;;;12.53;7.57;;;12.60;95.10;;;;;;10171520;29;20754;-81
2022/01/15 21:45:48;;;;;;;9.33;6.57;;;12.60;94.90;;;;;;10177091;29;20652;-81
2022/01/15 21:50:52;;;;;;;8.00;6.33;;;12.90;94.50;;;;;;10186588;29;20247;-81
2022/01/15 21:55:55;;;;;;;11.77;6.70;;;13.10;94.10;;;;;;10186118;29;20309;-83
2022/01/15 22:00:57;;;;;;;13.40;7.07;;;12.10;96.30;;;;;;10179703;29;20294;-83
2022/01/15 22:06:00;;;;;;;18.67;9.43;;;12.50;95.20;;;;;;10170166;29;20252;-83
2022/01/15 22:11:02;;;;;;;13.13;7.73;;;12.60;93.60;;;;;;10198222;29;20245;-82
2022/01/15 22:16:07;;;;;;;10.10;7.00;;;12.30;95.70;;;;;;10131843;29;20275;-83
2022/01/15 22:21:10;;;;;;;30.50;14.50;;;12.60;95.10;;;;;;10163094;29;20282;-83
2022/01/15 22:26:22;;;;;;;10.07;7.50;;;10.60;75.40;;;;;;10188905;29;20263;-83
2022/01/15 22:31:25;;;;;;;10.83;7.40;;;11.70;98.90;;;;;;10171685;29;20245;-84
2022/01/15 22:36:27;;;;;;;10.87;6.90;;;12.60;96.20;;;;;;10189883;29;20239;-84
2022/01/15 22:41:30;;;;;;;21.73;9.73;;;13.00;95.20;;;;;;10155194;29;20272;-84
2022/01/15 22:46:33;;;;;;;30.93;13.97;;;12.10;90.30;;;;;;10156361;29;20268;-84
2022/01/15 22:51:36;;;;;;;13.13;7.77;;;10.40;80.40;;;;;;10154405;29;20204;-84
2022/01/15 22:56:54;;;;;;;10.37;7.40;;;11.50;99.50;;;;;;10199889;29;20298;-84
2022/01/15 23:01:56;;;;;;;8.93;6.40;;;10.80;99.30;;;;;;10164261;29;20271;-84
2022/01/15 23:07:00;;;;;;;18.27;9.50;;;11.70;98.60;;;;;;10159537;29;20261;-84
2022/01/15 23:12:06;;;;;;;13.53;8.00;;;12.50;95.70;;;;;;10177285;29;20646;-84
2022/01/15 23:17:09;;;;;;;11.63;7.40;;;12.70;95.80;;;;;;10180264;29;20245;-84
2022/01/15 23:22:14;;;;;;;8.83;6.47;;;12.70;95.80;;;;;;10152358;29;20704;-83
2022/01/15 23:27:16;;;;;;;16.73;8.47;;;12.60;95.90;;;;;;10152186;29;20272;-84
2022/01/15 23:32:18;;;;;;;9.30;7.03;;;12.50;95.20;;;;;;10167935;29;20302;-84
2022/01/15 23:37:21;;;;;;;12.13;7.87;;;12.80;95.20;;;;;;10187503;29;20272;-84
2022/01/15 23:42:25;;;;;;;22.40;10.97;;;12.20;96.10;;;;;;10206706;29;20244;-84
2022/01/15 23:47:27;;;;;;;9.87;6.73;;;12.00;95.00;;;;;;10197498;29;20282;-84
2022/01/15 23:52:29;;;;;;;12.13;7.17;;;12.50;96.20;;;;;;10185724;29;20289;-83
2022/01/15 23:57:32;;;;;;;8.97;6.70;;;12.20;96.40;;;;;;10149244;29;20282;-83
